Macon, GA

5:45 AM EST on December 18, 2014 (GMT -0500)
Mercer University | Change Station
CLOSE
Current Station
Personal Weather Station
Location: Macon, GA
Elevation: 430 ft
Nearby Weather Stations

Elev 430 ft 32.83 °N, 83.65 °W | Updated 7 seconds ago

Mostly Cloudy
Mostly Cloudy
39.1 °F
Feels Like 39 °F
N
0.0
Wind Variable Wind from West
Gusts 2.0 mph

Today
High -- | Low -- °F
--% Chance of Precip.
Yesterday
High -- | Low -- °F
Precip. -- in
7:31 AM 5:31 PM
Waning Crescent, 15% visible
Pressure 30.13 in
Visibility 5.0 miles
Clouds Clear
Windchill 39 °F
Dew Point 36 °F
Humidity 87%
Rainfall 0.00 in
Snow Depth Not available.
UV 0.0 out of 12
Pollen 2.00 out of 12
Air Quality Not available.
Flu Activity Not available.
METAR KMCN 180953Z AUTO 00000KT 5SM BR CLR 02/02 A3013 RMK AO2 SLP203 T00170017 TSNO $

More Conditions Fewer Conditions

Pressure 30.13 in
Visibility 5.0 miles
Clouds Clear
Windchill 39 °F
Dew Point 36 °F
Humidity 87%
Rainfall 0.00 in
Snow Depth Not available.
UV 0.0 out of 12
Pollen 2.00 out of 12
Air Quality Not available.
Flu Activity Not available.
METAR KMCN 180953Z AUTO 00000KT 5SM BR CLR 02/02 A3013 RMK AO2 SLP203 T00170017 TSNO $

More Conditions Fewer Conditions

10-Day Weather Forecast

Almanac

Astronomy

Dec. 18, 2014 Rise Set
Actual Time
Civil Twilight
Nautical Twilight
Astronomical Twilight
Moon
Length of Visible Light
Length of Day
Tomorrow will be .
, % of the Moon is Illuminated

Today's Extremes

State Highs State Lows

Community

WunderPhotos

Upload Photos

1,778,917 photos uploaded!

WunderBlogs® & News

Nearby

Air Quality

  Air Quality AQ Index Pollutant
Not available.

Snow Depth

Station Depth Elevation

Earthquake Activity

City Distance Mag. Time & Date
Minimum magnitude displayed is 2.5.

Coastal Water Temperatures

Place Temperature

Nearby Weather Stations